BCS385 EDDP-LSGG
Flight info
| Callsign | BCS385 |
|---|---|
| Flight time | 1h 11m |
| Altitude | 36000 |
| Route | NEVKO1K NEVKO Y225 OKKOC Z94 VAGAB Y231 AMOSA N869 NATOR DCT LUTIX DCT BENOT |
| Aircraft | B77L/H-SDE1E2E3FGHIJ2J3J4J5M1RWXY/LB1D1 |
Departure
| Time | 2026-05-05 16:23 |
|---|---|
| Airport | Leipzig/Halle Airport (EDDP) |
Arrival
| Time | 2026-05-05 17:35 |
|---|---|
| Airport | Geneva International Airport (LSGG) |
| Time | Latitude | Longitude | Altitude | Speed | Heading |
|---|---|---|---|---|---|
| 2026-05-05 15:59 | 51.40855 | 12.23875 | 470 ft | 0 kts | 86° |
| 2026-05-05 16:00 | 51.40856 | 12.23875 | 470 ft | 0 kts | 86° |
| 2026-05-05 16:00 | 51.40855 | 12.23875 | 470 ft | 0 kts | 86° |
| 2026-05-05 16:14 | 51.40855 | 12.23860 | 464 ft | 3 kts | 85° |
| 2026-05-05 16:14 | 51.40852 | 12.23803 | 463 ft | 3 kts | 81° |
| 2026-05-05 16:15 | 51.40832 | 12.23768 | 463 ft | 3 kts | 354° |
| 2026-05-05 16:15 | 51.40814 | 12.23771 | 465 ft | 0 kts | 355° |
| 2026-05-05 16:18 | 51.40830 | 12.23769 | 464 ft | 3 kts | 355° |
| 2026-05-05 16:18 | 51.40858 | 12.23765 | 463 ft | 5 kts | 355° |
| 2026-05-05 16:18 | 51.41035 | 12.23725 | 469 ft | 19 kts | 319° |
| 2026-05-05 16:19 | 51.41044 | 12.23521 | 469 ft | 21 kts | 266° |
| 2026-05-05 16:19 | 51.41047 | 12.23330 | 468 ft | 14 kts | 296° |
| 2026-05-05 16:19 | 51.41109 | 12.23033 | 470 ft | 17 kts | 266° |
| 2026-05-05 16:20 | 51.41088 | 12.22550 | 460 ft | 27 kts | 265° |
| 2026-05-05 16:20 | 51.41060 | 12.21952 | 461 ft | 27 kts | 265° |
| 2026-05-05 16:21 | 51.41031 | 12.21345 | 456 ft | 29 kts | 265° |
| 2026-05-05 16:22 | 51.41002 | 12.20532 | 427 ft | 14 kts | 295° |
| 2026-05-05 16:22 | 51.41165 | 12.20615 | 430 ft | 24 kts | 80° |
| 2026-05-05 16:23 | 51.41261 | 12.22521 | 463 ft | 155 kts | 85° |
| 2026-05-05 16:23 | 51.41336 | 12.24328 | 1020 ft | 161 kts | 84° |
| 2026-05-05 16:23 | 51.40912 | 12.27919 | 2338 ft | 188 kts | 135° |
| 2026-05-05 16:24 | 51.39629 | 12.28804 | 2655 ft | 218 kts | 175° |
| 2026-05-05 16:24 | 51.38094 | 12.28674 | 3387 ft | 221 kts | 184° |
| 2026-05-05 16:24 | 51.35160 | 12.26801 | 4341 ft | 265 kts | 232° |
| 2026-05-05 16:25 | 51.34244 | 12.24243 | 5188 ft | 265 kts | 242° |
| 2026-05-05 16:25 | 51.32355 | 12.19390 | 7137 ft | 263 kts | 219° |
| 2026-05-05 16:25 | 51.30772 | 12.17853 | 7766 ft | 270 kts | 207° |
| 2026-05-05 16:26 | 51.27428 | 12.15041 | 9613 ft | 277 kts | 210° |
| 2026-05-05 16:26 | 51.23951 | 12.11758 | 10668 ft | 316 kts | 212° |
| 2026-05-05 16:27 | 51.22000 | 12.09807 | 11045 ft | 340 kts | 212° |
| 2026-05-05 16:27 | 51.19993 | 12.07761 | 11890 ft | 351 kts | 213° |
| 2026-05-05 16:27 | 51.17928 | 12.05638 | 12973 ft | 355 kts | 213° |
| 2026-05-05 16:27 | 51.15831 | 12.03479 | 14072 ft | 359 kts | 213° |
| 2026-05-05 16:28 | 51.13719 | 12.01295 | 15059 ft | 360 kts | 214° |
| 2026-05-05 16:28 | 51.11872 | 11.98621 | 15863 ft | 368 kts | 233° |
| 2026-05-05 16:28 | 51.10538 | 11.95122 | 16633 ft | 373 kts | 239° |
| 2026-05-05 16:28 | 51.09207 | 11.91507 | 17559 ft | 379 kts | 238° |
| 2026-05-05 16:29 | 51.07848 | 11.87897 | 18552 ft | 381 kts | 238° |
| 2026-05-05 16:29 | 51.06483 | 11.84301 | 19411 ft | 384 kts | 237° |
| 2026-05-05 16:29 | 51.05086 | 11.80641 | 20255 ft | 389 kts | 237° |
| 2026-05-05 16:29 | 51.03670 | 11.76939 | 21051 ft | 394 kts | 237° |
| 2026-05-05 16:30 | 51.02246 | 11.73224 | 21843 ft | 399 kts | 237° |
| 2026-05-05 16:30 | 51.00788 | 11.69427 | 22662 ft | 404 kts | 237° |
| 2026-05-05 16:30 | 50.99313 | 11.65593 | 23456 ft | 408 kts | 237° |
| 2026-05-05 16:30 | 50.97825 | 11.61727 | 24101 ft | 413 kts | 237° |
| 2026-05-05 16:31 | 50.96307 | 11.57791 | 24789 ft | 417 kts | 237° |
| 2026-05-05 16:31 | 50.94802 | 11.53895 | 25513 ft | 419 kts | 237° |
| 2026-05-05 16:31 | 50.93266 | 11.49922 | 26230 ft | 422 kts | 236° |
| 2026-05-05 16:31 | 50.91721 | 11.45934 | 26934 ft | 425 kts | 236° |
| 2026-05-05 16:32 | 50.90169 | 11.41930 | 27605 ft | 428 kts | 236° |
| 2026-05-05 16:32 | 50.88616 | 11.37934 | 28246 ft | 432 kts | 236° |
| 2026-05-05 16:32 | 50.87028 | 11.33852 | 28913 ft | 434 kts | 237° |
| 2026-05-05 16:32 | 50.85701 | 11.29498 | 29372 ft | 445 kts | 250° |
| 2026-05-05 16:33 | 50.85172 | 11.24685 | 29828 ft | 453 kts | 262° |
| 2026-05-05 16:33 | 50.84715 | 11.19762 | 30111 ft | 451 kts | 250° |
| 2026-05-05 16:33 | 50.83342 | 11.15315 | 30505 ft | 449 kts | 232° |
| 2026-05-05 16:33 | 50.81219 | 11.11736 | 31152 ft | 443 kts | 218° |
| 2026-05-05 16:34 | 50.78686 | 11.09013 | 31831 ft | 439 kts | 211° |
| 2026-05-05 16:34 | 50.76131 | 11.06488 | 32452 ft | 438 kts | 212° |
| 2026-05-05 16:34 | 50.73575 | 11.03871 | 33121 ft | 435 kts | 213° |
| 2026-05-05 16:34 | 50.71049 | 11.01225 | 33783 ft | 433 kts | 214° |
| 2026-05-05 16:35 | 50.68571 | 10.98521 | 34310 ft | 432 kts | 214° |
| 2026-05-05 16:35 | 50.66116 | 10.95791 | 34764 ft | 431 kts | 215° |
| 2026-05-05 16:35 | 50.63684 | 10.93087 | 35201 ft | 431 kts | 214° |
| 2026-05-05 16:35 | 50.61234 | 10.90382 | 35684 ft | 430 kts | 214° |
| 2026-05-05 16:36 | 50.58774 | 10.87684 | 35819 ft | 436 kts | 214° |
| 2026-05-05 16:36 | 50.56230 | 10.85076 | 35812 ft | 435 kts | 208° |
| 2026-05-05 16:36 | 50.50527 | 10.82091 | 35812 ft | 431 kts | 191° |
| 2026-05-05 16:37 | 50.44518 | 10.81684 | 35811 ft | 432 kts | 181° |
| 2026-05-05 16:37 | 50.38528 | 10.81882 | 35805 ft | 433 kts | 181° |
| 2026-05-05 16:38 | 50.32493 | 10.82022 | 35805 ft | 433 kts | 181° |
| 2026-05-05 16:38 | 50.26481 | 10.82120 | 35802 ft | 434 kts | 181° |
| 2026-05-05 16:39 | 50.20426 | 10.82208 | 35802 ft | 435 kts | 181° |
| 2026-05-05 16:39 | 50.14388 | 10.82297 | 35804 ft | 436 kts | 181° |
| 2026-05-05 16:40 | 50.08297 | 10.82388 | 35802 ft | 435 kts | 181° |
| 2026-05-05 16:40 | 50.02259 | 10.82481 | 35799 ft | 435 kts | 181° |
| 2026-05-05 16:41 | 49.96223 | 10.82575 | 35804 ft | 435 kts | 181° |
| 2026-05-05 16:41 | 49.90131 | 10.82671 | 35804 ft | 435 kts | 181° |
| 2026-05-05 16:42 | 49.84091 | 10.82765 | 35800 ft | 435 kts | 181° |
| 2026-05-05 16:42 | 49.78022 | 10.82859 | 35805 ft | 435 kts | 181° |
| 2026-05-05 16:43 | 49.71992 | 10.82697 | 35810 ft | 434 kts | 184° |
| 2026-05-05 16:43 | 49.65941 | 10.82215 | 35807 ft | 434 kts | 184° |
| 2026-05-05 16:44 | 49.59930 | 10.81759 | 35823 ft | 434 kts | 184° |
| 2026-05-05 16:44 | 49.53913 | 10.81056 | 35815 ft | 432 kts | 194° |
| 2026-05-05 16:45 | 49.51085 | 10.79502 | 35832 ft | 432 kts | 206° |
| 2026-05-05 16:45 | 49.48516 | 10.77178 | 35835 ft | 433 kts | 215° |
| 2026-05-05 16:45 | 49.44224 | 10.70606 | 35846 ft | 437 kts | 225° |
| 2026-05-05 16:46 | 49.40042 | 10.63852 | 35851 ft | 439 kts | 224° |
| 2026-05-05 16:46 | 49.35817 | 10.57046 | 35849 ft | 441 kts | 224° |
| 2026-05-05 16:47 | 49.31515 | 10.50308 | 35847 ft | 441 kts | 223° |
| 2026-05-05 16:47 | 49.27171 | 10.43740 | 35854 ft | 441 kts | 223° |
| 2026-05-05 16:48 | 49.22800 | 10.37081 | 35835 ft | 441 kts | 223° |
| 2026-05-05 16:48 | 49.18536 | 10.30410 | 35840 ft | 438 kts | 224° |
| 2026-05-05 16:49 | 49.14295 | 10.23742 | 35845 ft | 436 kts | 225° |
| 2026-05-05 16:49 | 49.10457 | 10.16596 | 35840 ft | 438 kts | 229° |
| 2026-05-05 16:50 | 49.06641 | 10.09305 | 35838 ft | 439 kts | 229° |
| 2026-05-05 16:50 | 49.02824 | 10.02073 | 35833 ft | 440 kts | 229° |
| 2026-05-05 16:51 | 48.98959 | 9.94788 | 35832 ft | 441 kts | 229° |
| 2026-05-05 16:51 | 48.95110 | 9.87555 | 35840 ft | 442 kts | 229° |
| 2026-05-05 16:52 | 48.91223 | 9.80268 | 35824 ft | 443 kts | 229° |
| 2026-05-05 16:52 | 48.87346 | 9.73021 | 35836 ft | 443 kts | 229° |
| 2026-05-05 16:53 | 48.83449 | 9.65761 | 35830 ft | 442 kts | 229° |
| 2026-05-05 16:53 | 48.79555 | 9.58523 | 35840 ft | 443 kts | 229° |
| 2026-05-05 16:54 | 48.75651 | 9.51277 | 35829 ft | 443 kts | 229° |
| 2026-05-05 16:54 | 48.71748 | 9.44064 | 35828 ft | 442 kts | 228° |
| 2026-05-05 16:55 | 48.67843 | 9.36925 | 35831 ft | 442 kts | 228° |
| 2026-05-05 16:55 | 48.63912 | 9.29752 | 35830 ft | 442 kts | 228° |
| 2026-05-05 16:56 | 48.60116 | 9.22424 | 35837 ft | 443 kts | 232° |
| 2026-05-05 16:56 | 48.56573 | 9.14861 | 35824 ft | 444 kts | 232° |
| 2026-05-05 16:57 | 48.52993 | 9.07230 | 35823 ft | 444 kts | 232° |
| 2026-05-05 16:57 | 48.49417 | 8.99662 | 35830 ft | 444 kts | 232° |
| 2026-05-05 16:58 | 48.45809 | 8.92059 | 35825 ft | 445 kts | 232° |
| 2026-05-05 16:58 | 48.42225 | 8.84529 | 35828 ft | 445 kts | 232° |
| 2026-05-05 16:59 | 48.38605 | 8.76945 | 35826 ft | 445 kts | 232° |
| 2026-05-05 16:59 | 48.34989 | 8.69389 | 35826 ft | 445 kts | 232° |
| 2026-05-05 17:00 | 48.31381 | 8.61870 | 35852 ft | 445 kts | 232° |
| 2026-05-05 17:00 | 48.28333 | 8.55535 | 35833 ft | 447 kts | 232° |
| 2026-05-05 17:01 | 48.24705 | 8.48010 | 35846 ft | 447 kts | 232° |
| 2026-05-05 17:01 | 48.21040 | 8.40430 | 35834 ft | 447 kts | 232° |
| 2026-05-05 17:02 | 48.17104 | 8.33333 | 35848 ft | 444 kts | 222° |
| 2026-05-05 17:02 | 48.12335 | 8.27483 | 35843 ft | 442 kts | 212° |
| 2026-05-05 17:03 | 48.07148 | 8.22507 | 35838 ft | 441 kts | 212° |
| 2026-05-05 17:03 | 48.01979 | 8.17608 | 35842 ft | 441 kts | 212° |
| 2026-05-05 17:04 | 47.96806 | 8.12675 | 35847 ft | 440 kts | 212° |
| 2026-05-05 17:04 | 47.91747 | 8.07837 | 35835 ft | 421 kts | 212° |
| 2026-05-05 17:05 | 47.89317 | 8.05513 | 35810 ft | 408 kts | 212° |
| 2026-05-05 17:05 | 47.86965 | 8.03266 | 35700 ft | 396 kts | 212° |
| 2026-05-05 17:05 | 47.84657 | 8.01065 | 35436 ft | 389 kts | 212° |
| 2026-05-05 17:05 | 47.82387 | 7.98902 | 35057 ft | 385 kts | 212° |
| 2026-05-05 17:06 | 47.80158 | 7.96781 | 34654 ft | 383 kts | 212° |
| 2026-05-05 17:06 | 47.77923 | 7.94657 | 34233 ft | 380 kts | 212° |
| 2026-05-05 17:06 | 47.75696 | 7.92541 | 33831 ft | 378 kts | 212° |
| 2026-05-05 17:06 | 47.73476 | 7.90435 | 33329 ft | 376 kts | 212° |
| 2026-05-05 17:07 | 47.71275 | 7.88350 | 32880 ft | 373 kts | 212° |
| 2026-05-05 17:07 | 47.69089 | 7.86281 | 32443 ft | 370 kts | 212° |
| 2026-05-05 17:07 | 47.66953 | 7.84259 | 32048 ft | 367 kts | 212° |
| 2026-05-05 17:07 | 47.64799 | 7.82225 | 31621 ft | 365 kts | 212° |
| 2026-05-05 17:08 | 47.62663 | 7.80208 | 31205 ft | 362 kts | 212° |
| 2026-05-05 17:08 | 47.60540 | 7.78205 | 30807 ft | 360 kts | 212° |
| 2026-05-05 17:08 | 47.58421 | 7.76209 | 30397 ft | 358 kts | 212° |
| 2026-05-05 17:08 | 47.56325 | 7.74236 | 30002 ft | 356 kts | 212° |
| 2026-05-05 17:09 | 47.54262 | 7.72296 | 29541 ft | 355 kts | 212° |
| 2026-05-05 17:09 | 47.52175 | 7.70337 | 29111 ft | 353 kts | 213° |
| 2026-05-05 17:09 | 47.50110 | 7.68398 | 28681 ft | 350 kts | 213° |
| 2026-05-05 17:09 | 47.48058 | 7.66472 | 28282 ft | 347 kts | 212° |
| 2026-05-05 17:10 | 47.46027 | 7.64569 | 27867 ft | 345 kts | 212° |
| 2026-05-05 17:10 | 47.44003 | 7.62675 | 27468 ft | 342 kts | 212° |
| 2026-05-05 17:10 | 47.42015 | 7.60817 | 27079 ft | 340 kts | 212° |
| 2026-05-05 17:10 | 47.40017 | 7.58950 | 26685 ft | 338 kts | 212° |
| 2026-05-05 17:11 | 47.38030 | 7.57095 | 26304 ft | 336 kts | 212° |
| 2026-05-05 17:11 | 47.36050 | 7.55249 | 25923 ft | 335 kts | 212° |
| 2026-05-05 17:11 | 47.34107 | 7.53437 | 25538 ft | 333 kts | 212° |
| 2026-05-05 17:11 | 47.32141 | 7.51607 | 25169 ft | 331 kts | 212° |
| 2026-05-05 17:12 | 47.30196 | 7.49799 | 24816 ft | 330 kts | 212° |
| 2026-05-05 17:12 | 47.28256 | 7.47994 | 24453 ft | 329 kts | 212° |
| 2026-05-05 17:12 | 47.26341 | 7.46215 | 24105 ft | 329 kts | 212° |
| 2026-05-05 17:12 | 47.24401 | 7.44416 | 23712 ft | 329 kts | 212° |
| 2026-05-05 17:13 | 47.22456 | 7.42613 | 23319 ft | 329 kts | 212° |
| 2026-05-05 17:13 | 47.20518 | 7.40818 | 22887 ft | 328 kts | 212° |
| 2026-05-05 17:13 | 47.18619 | 7.39046 | 22474 ft | 326 kts | 214° |
| 2026-05-05 17:13 | 47.16844 | 7.36982 | 22123 ft | 324 kts | 221° |
| 2026-05-05 17:14 | 47.15228 | 7.34673 | 21891 ft | 324 kts | 226° |
| 2026-05-05 17:14 | 47.13759 | 7.32121 | 21903 ft | 327 kts | 230° |
| 2026-05-05 17:14 | 47.12349 | 7.29494 | 21896 ft | 326 kts | 231° |
| 2026-05-05 17:14 | 47.10968 | 7.26895 | 21894 ft | 325 kts | 231° |
| 2026-05-05 17:15 | 47.09573 | 7.24285 | 21882 ft | 325 kts | 230° |
| 2026-05-05 17:15 | 47.08173 | 7.21686 | 21842 ft | 322 kts | 230° |
| 2026-05-05 17:15 | 47.06783 | 7.19116 | 21522 ft | 320 kts | 230° |
| 2026-05-05 17:15 | 47.05399 | 7.16564 | 21155 ft | 319 kts | 230° |
| 2026-05-05 17:16 | 47.04020 | 7.14038 | 20779 ft | 315 kts | 230° |
| 2026-05-05 17:16 | 47.02671 | 7.11572 | 20692 ft | 303 kts | 230° |
| 2026-05-05 17:16 | 47.01376 | 7.09205 | 20588 ft | 291 kts | 230° |
| 2026-05-05 17:16 | 47.00147 | 7.06960 | 20480 ft | 281 kts | 230° |
| 2026-05-05 17:17 | 46.98947 | 7.04771 | 20216 ft | 269 kts | 230° |
| 2026-05-05 17:17 | 46.97782 | 7.02647 | 19626 ft | 266 kts | 230° |
| 2026-05-05 17:17 | 46.96621 | 7.00531 | 18971 ft | 265 kts | 230° |
| 2026-05-05 17:17 | 46.95467 | 6.98428 | 18371 ft | 263 kts | 230° |
| 2026-05-05 17:18 | 46.94342 | 6.96379 | 17775 ft | 259 kts | 230° |
| 2026-05-05 17:18 | 46.93215 | 6.94331 | 17111 ft | 257 kts | 230° |
| 2026-05-05 17:18 | 46.92093 | 6.92293 | 16488 ft | 254 kts | 230° |
| 2026-05-05 17:18 | 46.90840 | 6.90506 | 15846 ft | 251 kts | 211° |
| 2026-05-05 17:19 | 46.89249 | 6.89445 | 15246 ft | 249 kts | 204° |
| 2026-05-05 17:19 | 46.87671 | 6.88509 | 14879 ft | 246 kts | 204° |
| 2026-05-05 17:19 | 46.86109 | 6.87576 | 14670 ft | 239 kts | 204° |
| 2026-05-05 17:19 | 46.84584 | 6.86664 | 14416 ft | 235 kts | 204° |
| 2026-05-05 17:20 | 46.83076 | 6.85761 | 14095 ft | 233 kts | 204° |
| 2026-05-05 17:20 | 46.81594 | 6.84873 | 13732 ft | 232 kts | 204° |
| 2026-05-05 17:20 | 46.80098 | 6.83975 | 13353 ft | 231 kts | 204° |
| 2026-05-05 17:20 | 46.78610 | 6.83083 | 12985 ft | 230 kts | 204° |
| 2026-05-05 17:21 | 46.77134 | 6.82197 | 12659 ft | 227 kts | 204° |
| 2026-05-05 17:21 | 46.75672 | 6.81319 | 12277 ft | 227 kts | 204° |
| 2026-05-05 17:21 | 46.74232 | 6.80456 | 11893 ft | 225 kts | 204° |
| 2026-05-05 17:22 | 46.71351 | 6.78730 | 11203 ft | 222 kts | 204° |
| 2026-05-05 17:22 | 46.69917 | 6.77871 | 10851 ft | 221 kts | 204° |
| 2026-05-05 17:22 | 46.68501 | 6.77025 | 10535 ft | 218 kts | 204° |
| 2026-05-05 17:22 | 46.67097 | 6.76186 | 10193 ft | 216 kts | 204° |
| 2026-05-05 17:23 | 46.65758 | 6.75273 | 9780 ft | 214 kts | 216° |
| 2026-05-05 17:23 | 46.64700 | 6.73727 | 9247 ft | 216 kts | 228° |
| 2026-05-05 17:23 | 46.63698 | 6.72079 | 8875 ft | 215 kts | 227° |
| 2026-05-05 17:23 | 46.62711 | 6.70472 | 8590 ft | 211 kts | 227° |
| 2026-05-05 17:24 | 46.61729 | 6.68874 | 8202 ft | 212 kts | 227° |
| 2026-05-05 17:24 | 46.60745 | 6.67275 | 7921 ft | 212 kts | 227° |
| 2026-05-05 17:24 | 46.59765 | 6.65682 | 7911 ft | 215 kts | 227° |
| 2026-05-05 17:24 | 46.58770 | 6.64066 | 7891 ft | 213 kts | 227° |
| 2026-05-05 17:25 | 46.57786 | 6.62468 | 7888 ft | 211 kts | 227° |
| 2026-05-05 17:25 | 46.57124 | 6.61394 | 7898 ft | 212 kts | 227° |
| 2026-05-05 17:25 | 46.55825 | 6.59287 | 7897 ft | 208 kts | 227° |
| 2026-05-05 17:25 | 46.54875 | 6.57746 | 7884 ft | 202 kts | 227° |
| 2026-05-05 17:26 | 46.53941 | 6.56234 | 7883 ft | 201 kts | 227° |
| 2026-05-05 17:26 | 46.53008 | 6.54724 | 7762 ft | 200 kts | 227° |
| 2026-05-05 17:26 | 46.52078 | 6.53218 | 7529 ft | 200 kts | 227° |
| 2026-05-05 17:26 | 46.51150 | 6.51716 | 7324 ft | 200 kts | 228° |
| 2026-05-05 17:27 | 46.50239 | 6.50187 | 7113 ft | 200 kts | 228° |
| 2026-05-05 17:27 | 46.49323 | 6.48709 | 7042 ft | 195 kts | 226° |
| 2026-05-05 17:27 | 46.48397 | 6.47276 | 7082 ft | 196 kts | 226° |
| 2026-05-05 17:27 | 46.47439 | 6.45826 | 7034 ft | 202 kts | 225° |
| 2026-05-05 17:28 | 46.46460 | 6.44361 | 7002 ft | 201 kts | 225° |
| 2026-05-05 17:28 | 46.45496 | 6.42927 | 6979 ft | 196 kts | 225° |
| 2026-05-05 17:28 | 46.44542 | 6.41510 | 6784 ft | 197 kts | 225° |
| 2026-05-05 17:28 | 46.43585 | 6.40090 | 6540 ft | 197 kts | 225° |
| 2026-05-05 17:29 | 46.42630 | 6.38675 | 6302 ft | 196 kts | 225° |
| 2026-05-05 17:29 | 46.41687 | 6.37279 | 6036 ft | 192 kts | 225° |
| 2026-05-05 17:29 | 46.40751 | 6.35894 | 5790 ft | 193 kts | 226° |
| 2026-05-05 17:29 | 46.39809 | 6.34499 | 5535 ft | 195 kts | 225° |
| 2026-05-05 17:30 | 46.38854 | 6.33086 | 5269 ft | 197 kts | 225° |
| 2026-05-05 17:30 | 46.37894 | 6.31666 | 5005 ft | 196 kts | 225° |
| 2026-05-05 17:30 | 46.36953 | 6.30273 | 4736 ft | 191 kts | 225° |
| 2026-05-05 17:30 | 46.36031 | 6.28911 | 4473 ft | 186 kts | 225° |
| 2026-05-05 17:31 | 46.35134 | 6.27587 | 4232 ft | 185 kts | 225° |
| 2026-05-05 17:31 | 46.34233 | 6.26255 | 3989 ft | 184 kts | 226° |
| 2026-05-05 17:31 | 46.33356 | 6.24960 | 3746 ft | 175 kts | 226° |
| 2026-05-05 17:31 | 46.32524 | 6.23732 | 3522 ft | 168 kts | 225° |
| 2026-05-05 17:32 | 46.31724 | 6.22551 | 3278 ft | 159 kts | 225° |
| 2026-05-05 17:32 | 46.30972 | 6.21442 | 3116 ft | 156 kts | 225° |
| 2026-05-05 17:32 | 46.30214 | 6.20324 | 2886 ft | 152 kts | 224° |
| 2026-05-05 17:32 | 46.29500 | 6.19272 | 2676 ft | 138 kts | 225° |
| 2026-05-05 17:33 | 46.28837 | 6.18293 | 2477 ft | 138 kts | 224° |
| 2026-05-05 17:33 | 46.28151 | 6.17290 | 2328 ft | 142 kts | 225° |
| 2026-05-05 17:33 | 46.27453 | 6.16261 | 2108 ft | 143 kts | 225° |
| 2026-05-05 17:33 | 46.26771 | 6.15255 | 1882 ft | 140 kts | 224° |
| 2026-05-05 17:34 | 46.26093 | 6.14252 | 1713 ft | 139 kts | 224° |
| 2026-05-05 17:34 | 46.25425 | 6.13270 | 1534 ft | 134 kts | 223° |
| 2026-05-05 17:34 | 46.24782 | 6.12329 | 1378 ft | 126 kts | 223° |
| 2026-05-05 17:34 | 46.24244 | 6.11542 | 1376 ft | 90 kts | 226° |
| 2026-05-05 17:35 | 46.23917 | 6.11056 | 1380 ft | 45 kts | 226° |
| 2026-05-05 17:35 | 46.23778 | 6.10861 | 1383 ft | 22 kts | 219° |
| 2026-05-05 17:35 | 46.23647 | 6.10752 | 1384 ft | 22 kts | 200° |
| 2026-05-05 17:35 | 46.23542 | 6.10706 | 1390 ft | 9 kts | 195° |
| 2026-05-05 17:36 | 46.23487 | 6.10711 | 1405 ft | 9 kts | 126° |
| 2026-05-05 17:36 | 46.23509 | 6.10792 | 1406 ft | 9 kts | 55° |
| 2026-05-05 17:36 | 46.23566 | 6.10877 | 1406 ft | 17 kts | 45° |
| 2026-05-05 17:36 | 46.23650 | 6.11000 | 1404 ft | 17 kts | 45° |
| 2026-05-05 17:37 | 46.23737 | 6.11128 | 1384 ft | 19 kts | 45° |
| 2026-05-05 17:37 | 46.23803 | 6.11224 | 1380 ft | 21 kts | 45° |
| 2026-05-05 17:37 | 46.23861 | 6.11316 | 1378 ft | 7 kts | 70° |
| 2026-05-05 17:37 | 46.23838 | 6.11385 | 1378 ft | 8 kts | 130° |
| 2026-05-05 17:38 | 46.23827 | 6.11401 | 1380 ft | 0 kts | 135° |
| 2026-05-05 17:38 | 46.23826 | 6.11402 | 1380 ft | 0 kts | 135° |